Laukaa, Finland
Kieli:  Suomi
CurCond
Päivitetty19/07/2019 13:05 
 

Lähistön Lentoasemien Säätiloja:

 

EFJY - Jyvaskyla (mil/C,) Finland
Etäisyys Sääasemalta: PKo 21km
Päivitetty: 19/07/2019 12:50
Selkeätä
Selkeätä
 Tuulen suunta P
Tuuli: P 19 km/h
Lämpötila: 21°C
Kastepiste: 8°C
Ilmankosteus: 43%
Ilmanpaine: 1011 hPa
Yhteenveto: Selkeätä
Näkyvyys: Enemmän Kuin 10 km
2019/07/19 09:50 EFJY 190950Z AUTO 01010KT 330V050 CAVOK 21/08 Q1011
EFHA - Halli (fin-Afb), Finland
Etäisyys Sääasemalta: Lo 56km
Päivitetty: 19/07/2019 12:50
Puolipilvistä
Puolipilvistä
 Tuulen suunta PLu
Tuuli: PLu 22 km/h
Lämpötila: 21°C
Kastepiste: 8°C
Ilmankosteus: 43%
Ilmanpaine: 1011 hPa
Pilvisyys: Puolipilvistä
Näkyvyys: 10 km
Pilvisyystiedot: Puolipilvistä 1494 m
2019/07/19 09:50 EFHA 190950Z AUTO 34012KT 310V040 9999 SCT049 21/08 Q1011
EFMI - Mikkeli, Finland
Etäisyys Sääasemalta: IKa 105km
Päivitetty: 19/07/2019 12:50
Heikkoa sadetta, Pilvistä
Heikkoa sadetta, Pilvistä
 Tuulen suunta varies
Tuuli: varies 7 km/h
Lämpötila: 16°C
Kastepiste: 16°C
Ilmankosteus: 100%
Ilmanpaine: 1010 hPa
Yhteenveto: Light Rain
Pilvisyys: Pilvistä
Näkyvyys: 5 km
Pilvisyystiedot: Pilvistä 549 m
2019/07/19 09:50 EFMI 190950Z AUTO VRB04KT 5000 -RA OVC018 16/16 Q1010
 
EFTP - Tampere/Pirkkala, Finland
Etäisyys Sääasemalta: Lo 135km
Päivitetty: 19/07/2019 12:50
Selkeätä
Selkeätä
 Tuulen suunta PKo
Tuuli: PKo 17 km/h
Lämpötila: 21°C
Kastepiste: 10°C
Ilmankosteus: 50%
Ilmanpaine: 1012 hPa
Yhteenveto: Selkeätä
Näkyvyys: Enemmän Kuin 10 km
2019/07/19 09:50 EFTP 190950Z AUTO 02009KT CAVOK 21/10 Q1012
EFKU - Kuopio (mil/Civ), Finland
Etäisyys Sääasemalta: Ko 146km
Päivitetty: 19/07/2019 12:50
Enimmäkseen pilvistä
Enimmäkseen pilvistä
 Tuulen suunta PLu
Tuuli: PLu 24 km/h
Lämpötila: 19°C
Kastepiste: 13°C
Ilmankosteus: 68%
Ilmanpaine: 1010 hPa
Pilvisyys: Enimmäkseen pilvistä
Näkyvyys: 10 km
Pilvisyystiedot: Enimmäkseen pilvistä 671 m
Enimmäkseen pilvistä 1158 m
2019/07/19 09:50 EFKU 190950Z AUTO 33013KT 9999 BKN022 BKN038 19/13 Q1010
EFSI - Seinajoki-Ilmajo, Finland
Etäisyys Sääasemalta: LLu 149km
Päivitetty: 19/07/2019 12:50
Joitain Pilviä
Joitain Pilviä
 Tuulen suunta P
Tuuli: P 11 km/h
Lämpötila: 20°C
Kastepiste: 10°C
Ilmankosteus: 53%
Ilmanpaine: 1012 hPa
Pilvisyys: Joitain Pilviä
Näkyvyys: 10 km
Pilvisyystiedot: Joitain Pilviä 1219 m
2019/07/19 09:50 EFSI 190950Z AUTO 35006KT 290V050 9999 FEW040 20/10 Q1012